Time;durP1;ratioP1;P1;durP2;ratioP2;P2;SDS_P1;SDS_P2;PMS_P1;PMS_P2;Temp;Humidity;BMP_temperature;BMP_pressure;BME280_temperature;BME280_humidity;BME280_pressure;Samples;Min_cycle;Max_cycle;Signal;HPM_P1;HPM_P2
2023/09/16 00:00:09;;;;;;;31.50;28.60;;;10.90;99.90;;;;;;6133951;23;20351;-78
2023/09/16 00:02:38;;;;;;;19.02;17.52;;;10.90;99.90;;;;;;6109432;23;20075;-78
2023/09/16 00:05:04;;;;;;;21.02;19.33;;;10.80;99.90;;;;;;6132075;23;20060;-78
2023/09/16 00:07:31;;;;;;;23.05;20.98;;;10.80;99.90;;;;;;6130596;23;20010;-78
2023/09/16 00:09:57;;;;;;;18.42;16.92;;;10.80;99.90;;;;;;6130371;23;20013;-78
2023/09/16 00:12:26;;;;;;;16.70;15.30;;;10.80;99.90;;;;;;6129801;23;20064;-78
2023/09/16 00:14:52;;;;;;;19.45;17.70;;;10.70;99.90;;;;;;6153399;23;20422;-78
2023/09/16 00:17:19;;;;;;;20.70;18.70;;;10.70;99.90;;;;;;6128625;23;20107;-78
2023/09/16 00:19:45;;;;;;;31.35;28.23;;;10.70;99.90;;;;;;6153496;23;20010;-78
2023/09/16 00:22:10;;;;;;;31.20;28.15;;;10.70;99.90;;;;;;6153884;23;20005;-78
2023/09/16 00:24:36;;;;;;;20.95;19.15;;;10.60;99.90;;;;;;6128427;23;20097;-77
2023/09/16 00:27:03;;;;;;;17.40;15.75;;;10.60;99.90;;;;;;6153601;23;20458;-77
2023/09/16 00:29:29;;;;;;;23.50;21.38;;;10.60;99.90;;;;;;6128936;23;20013;-77
2023/09/16 00:31:54;;;;;;;22.27;20.33;;;10.50;99.90;;;;;;6128364;23;20488;-77
2023/09/16 00:34:20;;;;;;;27.80;25.20;;;10.50;99.90;;;;;;6128366;23;20018;-77
2023/09/16 00:36:45;;;;;;;25.75;23.27;;;10.50;99.90;;;;;;6129223;23;20012;-77
2023/09/16 00:39:11;;;;;;;22.33;20.42;;;10.50;99.90;;;;;;6128827;23;20013;-77
2023/09/16 00:41:37;;;;;;;22.40;20.33;;;10.50;99.90;;;;;;6128455;23;20088;-77
2023/09/16 00:44:02;;;;;;;18.65;17.05;;;10.50;99.90;;;;;;6128478;23;20010;-77
2023/09/16 00:46:28;;;;;;;21.23;19.52;;;10.50;99.90;;;;;;6128583;23;20088;-77
2023/09/16 00:48:54;;;;;;;21.40;19.70;;;10.50;99.90;;;;;;6103423;23;20067;-77
2023/09/16 00:51:20;;;;;;;22.30;20.52;;;10.40;99.90;;;;;;6104161;23;20097;-77
2023/09/16 00:53:46;;;;;;;24.52;22.40;;;10.40;99.90;;;;;;6152745;23;20052;-77
2023/09/16 00:56:13;;;;;;;38.85;34.40;;;10.40;99.90;;;;;;6103409;23;20019;-77
2023/09/16 00:58:40;;;;;;;37.90;33.75;;;10.40;99.90;;;;;;6152564;23;20005;-77
2023/09/16 01:01:08;;;;;;;20.77;19.15;;;10.40;99.90;;;;;;6128042;23;20037;-77
2023/09/16 01:03:35;;;;;;;42.22;36.40;;;10.40;99.90;;;;;;6127854;23;20017;-77
2023/09/16 01:06:03;;;;;;;41.25;36.95;;;10.40;99.90;;;;;;6128063;23;20018;-77
2023/09/16 01:08:29;;;;;;;30.88;28.42;;;10.40;99.90;;;;;;6103642;23;20010;-77
2023/09/16 01:10:55;;;;;;;25.02;23.02;;;10.30;99.90;;;;;;6103392;23;20017;-77
2023/09/16 01:13:21;;;;;;;62.22;47.20;;;10.30;99.90;;;;;;6127291;23;20017;-77
2023/09/16 01:15:55;;;;;;;22.58;20.67;;;10.30;99.90;;;;;;6127311;23;20010;-77
2023/09/16 01:18:32;;;;;;;21.95;20.13;;;10.30;99.90;;;;;;6127803;23;20028;-77
2023/09/16 01:20:59;;;;;;;23.98;22.15;;;10.30;99.90;;;;;;6128392;23;20009;-77
2023/09/16 01:23:24;;;;;;;19.67;18.00;;;10.30;99.90;;;;;;6127621;23;20013;-77
2023/09/16 01:25:50;;;;;;;22.88;21.10;;;10.30;99.90;;;;;;6103301;23;20092;-77
2023/09/16 01:28:15;;;;;;;37.50;33.58;;;10.30;99.90;;;;;;6127604;23;20021;-77
2023/09/16 01:30:46;;;;;;;38.72;34.53;;;10.30;99.90;;;;;;6127994;23;20446;-77
2023/09/16 01:33:36;;;;;;;45.63;40.67;;;10.20;99.90;;;;;;6127625;23;20327;-77
2023/09/16 01:36:13;;;;;;;39.22;35.83;;;10.20;99.90;;;;;;6127727;23;20018;-77
2023/09/16 01:38:41;;;;;;;39.90;36.00;;;10.20;99.90;;;;;;6152011;23;20447;-77
2023/09/16 01:41:09;;;;;;;29.08;26.88;;;10.20;99.90;;;;;;6127919;23;20522;-77
2023/09/16 01:43:36;;;;;;;36.95;33.75;;;10.20;99.90;;;;;;6127751;23;20378;-77
2023/09/16 01:46:02;;;;;;;27.05;24.67;;;10.20;99.90;;;;;;6127622;23;20010;-77
2023/09/16 01:48:27;;;;;;;27.33;24.77;;;10.20;99.90;;;;;;6126729;23;20412;-78
2023/09/16 01:50:53;;;;;;;27.77;25.50;;;10.20;99.90;;;;;;6127441;23;20327;-78
2023/09/16 01:53:19;;;;;;;25.13;23.15;;;10.20;99.90;;;;;;6127863;23;20009;-78
2023/09/16 01:55:44;;;;;;;30.48;27.83;;;10.20;99.90;;;;;;6127190;23;20397;-78
2023/09/16 01:58:10;;;;;;;22.55;20.80;;;10.20;99.90;;;;;;6127376;23;20009;-77
2023/09/16 02:00:36;;;;;;;44.47;39.97;;;10.10;99.90;;;;;;6127411;23;20005;-77
2023/09/16 02:03:02;;;;;;;36.60;33.22;;;10.20;99.90;;;;;;6127885;23;20014;-77
2023/09/16 02:05:28;;;;;;;29.30;27.00;;;10.10;99.90;;;;;;6127703;23;20072;-77
2023/09/16 02:07:54;;;;;;;32.78;29.95;;;10.10;99.90;;;;;;6152403;23;20013;-77
2023/09/16 02:10:19;;;;;;;26.65;24.17;;;10.10;99.90;;;;;;6127236;23;20013;-77
2023/09/16 02:12:45;;;;;;;26.48;24.15;;;10.10;99.90;;;;;;6103072;23;20010;-77
2023/09/16 02:15:10;;;;;;;29.80;27.17;;;10.10;99.90;;;;;;6126985;23;20018;-77
2023/09/16 02:17:39;;;;;;;40.47;36.55;;;10.10;99.90;;;;;;6127526;23;20045;-77
2023/09/16 02:20:08;;;;;;;25.05;23.25;;;10.10;99.90;;;;;;6126914;23;20037;-77
2023/09/16 02:22:34;;;;;;;25.08;23.02;;;10.00;99.90;;;;;;6127391;23;20009;-77
2023/09/16 02:25:00;;;;;;;26.48;24.35;;;10.00;99.90;;;;;;6103343;23;20017;-77
2023/09/16 02:27:25;;;;;;;28.88;26.50;;;10.00;99.90;;;;;;6127396;23;20096;-77
2023/09/16 02:29:51;;;;;;;30.00;27.42;;;10.00;99.90;;;;;;6127329;23;20021;-77
2023/09/16 02:32:16;;;;;;;39.72;35.97;;;10.00;99.90;;;;;;6127766;23;20024;-77
2023/09/16 02:34:42;;;;;;;37.53;34.42;;;10.00;99.90;;;;;;6127487;23;20024;-77
2023/09/16 02:37:07;;;;;;;31.55;28.95;;;10.00;99.90;;;;;;6126932;23;20013;-77
2023/09/16 02:39:33;;;;;;;27.80;25.55;;;10.00;99.90;;;;;;6127395;23;20350;-77
2023/09/16 02:41:59;;;;;;;29.48;26.98;;;10.00;99.90;;;;;;6127279;23;20510;-76
2023/09/16 02:44:24;;;;;;;27.98;25.88;;;10.00;99.90;;;;;;6127355;23;20451;-77
2023/09/16 02:46:50;;;;;;;43.67;39.15;;;10.00;99.90;;;;;;6127419;23;20024;-77
2023/09/16 02:49:15;;;;;;;31.63;29.02;;;10.00;99.90;;;;;;6127390;23;20014;-77
2023/09/16 02:51:41;;;;;;;24.27;22.35;;;10.00;99.90;;;;;;6126903;23;20049;-77
2023/09/16 02:54:07;;;;;;;27.52;25.00;;;10.00;99.90;;;;;;6127691;23;20354;-77
2023/09/16 02:56:32;;;;;;;28.95;26.52;;;10.00;99.90;;;;;;6104429;23;20458;-77
2023/09/16 02:58:58;;;;;;;25.73;23.40;;;10.00;99.90;;;;;;6128442;23;20450;-77
2023/09/16 03:01:24;;;;;;;40.00;35.90;;;10.00;99.90;;;;;;6128808;23;20010;-77
2023/09/16 03:03:49;;;;;;;40.38;36.67;;;10.00;99.90;;;;;;6129455;23;20013;-77
2023/09/16 03:06:15;;;;;;;39.92;36.38;;;10.00;99.90;;;;;;6128422;23;20045;-77
2023/09/16 03:08:40;;;;;;;38.30;34.70;;;10.00;99.90;;;;;;6129419;23;20025;-78
2023/09/16 03:11:06;;;;;;;24.50;22.60;;;10.00;99.90;;;;;;6128789;23;20009;-77
2023/09/16 03:13:32;;;;;;;55.58;49.30;;;10.00;99.90;;;;;;6128786;23;20095;-77
2023/09/16 03:16:19;;;;;;;30.75;28.40;;;10.00;99.90;;;;;;6128212;23;20016;-77
2023/09/16 03:18:46;;;;;;;33.97;31.02;;;10.00;99.90;;;;;;6128904;23;20005;-77
2023/09/16 03:21:14;;;;;;;39.85;36.33;;;10.00;99.90;;;;;;6153790;23;20056;-77
2023/09/16 03:23:40;;;;;;;38.30;35.20;;;10.00;99.90;;;;;;6129305;23;20017;-77
2023/09/16 03:26:07;;;;;;;34.72;31.92;;;10.10;99.90;;;;;;6128434;23;20017;-77
2023/09/16 03:28:33;;;;;;;33.72;31.15;;;10.10;99.90;;;;;;6153652;23;20009;-77
2023/09/16 03:30:58;;;;;;;32.60;30.05;;;10.10;99.90;;;;;;6129043;23;20565;-77
2023/09/16 03:33:24;;;;;;;29.45;26.85;;;10.10;99.90;;;;;;6129076;23;20018;-77
2023/09/16 03:35:49;;;;;;;28.33;26.00;;;10.00;99.90;;;;;;6128944;23;20005;-77
2023/09/16 03:38:16;;;;;;;25.85;23.85;;;10.00;99.90;;;;;;6128850;23;20068;-77
2023/09/16 03:40:42;;;;;;;33.38;30.58;;;10.00;99.90;;;;;;6128599;23;20452;-77
2023/09/16 03:43:07;;;;;;;27.50;25.40;;;10.00;99.90;;;;;;6128730;23;20025;-77
2023/09/16 03:45:33;;;;;;;27.85;25.70;;;10.00;99.90;;;;;;6128404;23;20056;-77
2023/09/16 03:47:59;;;;;;;31.92;28.95;;;10.00;99.90;;;;;;6128275;23;20010;-77
2023/09/16 03:50:25;;;;;;;31.52;28.67;;;10.00;99.90;;;;;;6128621;23;20017;-77
2023/09/16 03:52:51;;;;;;;31.58;29.02;;;10.00;99.90;;;;;;6128248;23;20513;-77
2023/09/16 03:55:16;;;;;;;35.33;32.35;;;9.90;99.90;;;;;;6128620;23;20088;-77
2023/09/16 03:57:42;;;;;;;28.33;26.13;;;9.90;99.90;;;;;;6128372;23;20016;-77
2023/09/16 04:00:10;;;;;;;28.95;26.65;;;9.90;99.90;;;;;;6103870;23;20021;-77
2023/09/16 04:02:36;;;;;;;31.48;29.02;;;9.90;99.90;;;;;;6128610;23;20020;-77
2023/09/16 04:05:02;;;;;;;30.60;28.13;;;9.90;99.90;;;;;;6128632;23;20014;-77
2023/09/16 04:07:29;;;;;;;32.83;29.90;;;9.90;99.90;;;;;;6103729;23;20102;-77
2023/09/16 04:09:54;;;;;;;22.27;20.70;;;9.90;99.90;;;;;;6128478;23;20048;-77
2023/09/16 04:12:20;;;;;;;24.60;22.70;;;9.90;99.90;;;;;;6128678;23;20014;-77
2023/09/16 04:14:45;;;;;;;37.25;34.10;;;9.90;99.90;;;;;;6128359;23;20017;-78
2023/09/16 04:17:12;;;;;;;35.75;32.72;;;9.90;99.90;;;;;;6127510;23;20022;-77
2023/09/16 04:19:38;;;;;;;37.63;34.45;;;9.90;99.90;;;;;;6127823;23;20010;-77
2023/09/16 04:22:03;;;;;;;32.25;29.58;;;9.90;99.90;;;;;;6128617;23;20104;-77
2023/09/16 04:24:29;;;;;;;32.50;29.85;;;9.90;99.90;;;;;;6128374;23;20013;-77
2023/09/16 04:26:54;;;;;;;30.08;27.58;;;9.90;99.90;;;;;;6127177;23;20009;-78
2023/09/16 04:29:20;;;;;;;39.72;36.08;;;9.90;99.90;;;;;;6128185;23;20485;-77
2023/09/16 04:31:45;;;;;;;32.50;29.70;;;9.80;99.90;;;;;;6128623;23;20482;-77
2023/09/16 04:34:11;;;;;;;27.17;25.05;;;9.90;99.90;;;;;;6128737;23;20026;-77
2023/09/16 04:36:39;;;;;;;35.72;32.55;;;9.80;99.90;;;;;;6127093;23;20005;-77
2023/09/16 04:39:04;;;;;;;43.55;38.35;;;9.80;99.90;;;;;;6127520;23;20078;-77
2023/09/16 04:41:31;;;;;;;29.50;27.20;;;9.80;99.90;;;;;;6128508;23;20530;-77
2023/09/16 04:43:57;;;;;;;34.25;31.33;;;9.80;99.90;;;;;;6128411;23;20068;-77
2023/09/16 04:46:23;;;;;;;47.13;42.28;;;9.70;99.90;;;;;;6151591;23;20017;-77
2023/09/16 04:48:48;;;;;;;32.70;29.98;;;9.80;99.90;;;;;;6127947;23;20104;-77
2023/09/16 04:51:14;;;;;;;39.42;35.90;;;9.70;99.90;;;;;;6128390;23;20017;-77
2023/09/16 04:53:40;;;;;;;44.05;39.83;;;9.70;99.90;;;;;;6127871;23;20013;-77
2023/09/16 04:56:05;;;;;;;38.13;34.83;;;9.70;99.90;;;;;;6127719;23;20068;-77
2023/09/16 04:58:31;;;;;;;32.35;29.75;;;9.70;99.90;;;;;;6127677;23;20017;-77
2023/09/16 05:01:01;;;;;;;35.33;32.25;;;9.80;99.90;;;;;;6128284;23;20009;-77
2023/09/16 05:03:26;;;;;;;47.30;39.95;;;9.70;99.90;;;;;;6152541;23;20080;-77
2023/09/16 05:05:52;;;;;;;28.98;26.73;;;9.70;99.90;;;;;;6127833;23;20017;-77
2023/09/16 05:08:19;;;;;;;33.65;30.48;;;9.70;99.90;;;;;;6103522;23;20076;-77
2023/09/16 05:10:44;;;;;;;30.50;28.02;;;9.70;99.90;;;;;;6152689;23;20017;-77
2023/09/16 05:13:10;;;;;;;30.15;27.45;;;9.70;99.90;;;;;;6128118;23;20518;-77
2023/09/16 05:15:36;;;;;;;30.88;28.33;;;9.70;99.90;;;;;;6127225;23;20420;-77
2023/09/16 05:18:01;;;;;;;28.38;26.08;;;9.70;99.90;;;;;;6126909;23;20049;-77
2023/09/16 05:20:27;;;;;;;30.77;28.02;;;9.70;99.90;;;;;;6128073;23;20014;-77
2023/09/16 05:22:53;;;;;;;34.75;31.85;;;9.60;99.90;;;;;;6127944;23;20009;-77
2023/09/16 05:25:18;;;;;;;26.75;24.65;;;9.60;99.90;;;;;;6127779;23;20100;-77
2023/09/16 05:27:44;;;;;;;28.00;25.70;;;9.60;99.90;;;;;;6126846;23;20450;-77
2023/09/16 05:30:10;;;;;;;29.98;27.55;;;9.60;99.90;;;;;;6127671;23;20166;-77
2023/09/16 05:32:35;;;;;;;31.35;28.83;;;9.60;99.90;;;;;;6128148;23;20088;-77
2023/09/16 05:35:01;;;;;;;32.05;29.35;;;9.60;99.90;;;;;;6127694;23;20052;-77
2023/09/16 05:37:27;;;;;;;31.45;28.98;;;9.70;99.90;;;;;;6126056;23;20041;-77
2023/09/16 05:39:53;;;;;;;26.63;24.52;;;9.70;99.90;;;;;;6125969;23;20019;-77
2023/09/16 05:42:18;;;;;;;39.00;35.08;;;9.70;99.90;;;;;;6127820;23;20420;-77
2023/09/16 05:44:44;;;;;;;36.75;33.35;;;9.70;99.90;;;;;;6127809;23;20374;-76
2023/09/16 05:47:09;;;;;;;28.30;26.10;;;9.70;99.90;;;;;;6127843;23;20017;-77
2023/09/16 05:49:35;;;;;;;44.55;40.35;;;9.70;99.90;;;;;;6102014;23;20017;-77
2023/09/16 05:52:00;;;;;;;33.75;30.95;;;9.70;99.90;;;;;;6127469;23;20017;-77
2023/09/16 05:54:26;;;;;;;42.60;38.80;;;9.80;99.90;;;;;;6127784;23;20331;-77
2023/09/16 05:56:52;;;;;;;40.20;36.80;;;9.80;99.90;;;;;;6127067;23;20068;-77
2023/09/16 05:59:18;;;;;;;32.00;29.35;;;9.90;99.90;;;;;;6151907;23;20041;-77
2023/09/16 06:01:44;;;;;;;54.00;48.33;;;9.90;99.90;;;;;;6127162;23;20093;-77
2023/09/16 06:04:10;;;;;;;33.03;30.30;;;10.00;99.90;;;;;;6127814;23;20419;-77
2023/09/16 06:06:36;;;;;;;31.25;28.65;;;10.00;99.90;;;;;;6127302;23;20017;-77
2023/09/16 06:09:03;;;;;;;41.50;37.38;;;10.00;99.90;;;;;;6127835;23;20018;-77
2023/09/16 06:11:29;;;;;;;48.40;43.67;;;10.10;99.90;;;;;;6127654;23;20009;-77
2023/09/16 06:13:55;;;;;;;33.03;30.48;;;10.10;99.90;;;;;;6150720;23;20024;-77
2023/09/16 06:16:21;;;;;;;45.17;40.72;;;10.20;99.90;;;;;;6125537;23;20905;-77
2023/09/16 06:18:46;;;;;;;47.40;42.72;;;10.30;99.90;;;;;;6127363;23;20076;-77
2023/09/16 06:21:13;;;;;;;49.95;44.35;;;10.30;99.90;;;;;;6127744;23;20021;-77
2023/09/16 06:23:38;;;;;;;41.30;37.67;;;10.40;99.90;;;;;;6127838;23;20024;-77
2023/09/16 06:26:04;;;;;;;41.53;37.70;;;10.50;99.90;;;;;;6125910;23;20053;-77
2023/09/16 06:28:30;;;;;;;38.97;35.80;;;10.60;99.90;;;;;;6126430;23;20013;-77
2023/09/16 06:30:55;;;;;;;51.13;46.53;;;10.70;99.90;;;;;;6128801;23;20119;-77
2023/09/16 06:33:21;;;;;;;104.05;75.10;;;10.80;99.90;;;;;;6129062;23;20135;-77
2023/09/16 06:35:46;;;;;;;75.45;68.38;;;10.90;99.90;;;;;;6128081;23;20005;-78
2023/09/16 06:38:12;;;;;;;74.85;68.15;;;11.10;99.90;;;;;;6128333;23;20052;-76
2023/09/16 06:40:38;;;;;;;82.00;74.57;;;11.30;99.90;;;;;;6128059;23;20013;-77
2023/09/16 06:43:03;;;;;;;74.68;68.10;;;11.60;99.90;;;;;;6128666;23;20041;-77
2023/09/16 06:45:29;;;;;;;138.60;113.90;;;11.80;99.90;;;;;;6129490;23;20024;-77
2023/09/16 06:47:58;;;;;;;82.25;74.93;;;12.00;99.90;;;;;;6129476;23;20014;-77
2023/09/16 06:50:23;;;;;;;83.95;75.68;;;12.10;99.90;;;;;;6129377;23;20067;-77
2023/09/16 06:52:49;;;;;;;83.28;73.85;;;12.30;99.90;;;;;;6129524;23;20435;-77
2023/09/16 06:55:15;;;;;;;87.30;78.15;;;12.40;99.90;;;;;;6129035;23;20044;-77
2023/09/16 06:57:40;;;;;;;79.72;71.38;;;12.50;99.90;;;;;;6129326;23;20063;-76
2023/09/16 07:00:06;;;;;;;64.70;58.25;;;12.50;99.90;;;;;;6129204;23;20010;-77
2023/09/16 07:02:32;;;;;;;61.45;55.53;;;12.60;99.90;;;;;;6153810;23;20076;-77
2023/09/16 07:04:57;;;;;;;59.05;53.00;;;12.60;99.90;;;;;;6129162;23;20021;-77
2023/09/16 07:07:24;;;;;;;69.50;62.25;;;12.70;99.90;;;;;;6129326;23;20350;-78
2023/09/16 07:09:57;;;;;;;76.90;69.65;;;12.90;99.90;;;;;;6153511;23;20088;-78
2023/09/16 07:12:23;;;;;;;74.50;67.83;;;13.00;99.90;;;;;;6128696;23;20013;-77
2023/09/16 07:14:48;;;;;;;64.70;59.05;;;13.20;99.90;;;;;;6104491;23;20343;-78
2023/09/16 07:17:14;;;;;;;57.08;51.90;;;13.40;99.90;;;;;;6129248;23;20068;-78
2023/09/16 07:19:40;;;;;;;51.00;46.45;;;13.60;99.90;;;;;;6129277;23;20146;-78
2023/09/16 07:22:06;;;;;;;44.78;40.90;;;13.80;99.90;;;;;;6129105;23;20013;-78
2023/09/16 07:24:32;;;;;;;37.67;34.47;;;14.00;99.90;;;;;;6104640;23;20052;-79
2023/09/16 07:26:58;;;;;;;47.13;42.65;;;14.20;99.90;;;;;;6127978;23;20017;-78
2023/09/16 07:29:24;;;;;;;59.33;53.60;;;14.40;99.90;;;;;;6104831;23;20052;-78
2023/09/16 07:31:49;;;;;;;58.45;53.17;;;14.60;99.90;;;;;;6127525;23;20078;-77
2023/09/16 07:34:20;;;;;;;50.42;45.88;;;14.70;99.90;;;;;;6128247;23;20018;-78
2023/09/16 07:36:46;;;;;;;71.63;65.15;;;14.90;99.90;;;;;;6128848;23;20451;-78
2023/09/16 07:39:12;;;;;;;48.45;44.40;;;15.10;99.90;;;;;;6129382;23;20017;-78
2023/09/16 07:41:38;;;;;;;36.90;33.88;;;15.30;99.90;;;;;;6126908;23;20469;-78
2023/09/16 07:44:04;;;;;;;36.60;33.72;;;15.50;99.90;;;;;;6154109;23;20323;-79
2023/09/16 07:46:29;;;;;;;39.20;36.05;;;15.60;99.90;;;;;;6128708;23;20017;-80
2023/09/16 07:48:55;;;;;;;36.42;33.53;;;15.70;99.90;;;;;;6129273;23;20359;-80
2023/09/16 07:51:21;;;;;;;40.30;37.03;;;15.80;99.90;;;;;;6104831;23;20092;-80
2023/09/16 07:53:46;;;;;;;35.88;33.10;;;15.90;99.90;;;;;;6130437;23;20013;-79
2023/09/16 07:56:16;;;;;;;32.30;29.65;;;15.90;99.90;;;;;;6129930;23;20016;-80
2023/09/16 07:58:41;;;;;;;39.72;36.45;;;16.00;99.90;;;;;;6129702;23;20024;-80
2023/09/16 08:01:07;;;;;;;36.75;33.75;;;16.10;99.90;;;;;;6129540;23;20006;-80
2023/09/16 08:03:32;;;;;;;36.97;34.05;;;16.20;99.90;;;;;;6129104;23;20009;-80
2023/09/16 08:05:59;;;;;;;31.95;29.20;;;16.20;99.90;;;;;;6130356;23;20101;-79
2023/09/16 08:08:24;;;;;;;36.63;33.20;;;16.40;99.90;;;;;;6130528;23;20041;-81
2023/09/16 08:10:51;;;;;;;35.92;33.03;;;16.50;99.90;;;;;;6129918;23;20013;-85
2023/09/16 08:13:18;;;;;;;27.17;24.98;;;16.60;99.90;;;;;;6104545;23;20020;-80
2023/09/16 08:15:43;;;;;;;32.45;29.65;;;16.60;99.90;;;;;;6105596;23;20013;-78
2023/09/16 08:18:09;;;;;;;22.55;20.45;;;16.70;99.90;;;;;;6130203;23;20089;-79
2023/09/16 08:20:35;;;;;;;24.10;21.98;;;16.80;99.90;;;;;;6131234;23;20037;-80
2023/09/16 08:23:00;;;;;;;23.15;20.95;;;16.80;99.90;;;;;;6105410;23;20225;-79
2023/09/16 08:25:26;;;;;;;23.02;21.02;;;16.80;99.90;;;;;;6129881;23;20010;-79
2023/09/16 08:27:52;;;;;;;21.25;19.45;;;16.90;99.90;;;;;;6131798;23;20143;-80
2023/09/16 08:30:18;;;;;;;21.45;19.30;;;16.90;99.90;;;;;;6131558;23;20017;-80
2023/09/16 08:32:43;;;;;;;22.50;20.17;;;17.10;99.90;;;;;;6132282;23;20014;-81
2023/09/16 08:35:09;;;;;;;19.75;17.88;;;17.20;99.90;;;;;;6132266;23;20049;-80
2023/09/16 08:37:35;;;;;;;18.95;17.15;;;17.40;99.90;;;;;;6131840;23;20492;-79
2023/09/16 08:40:01;;;;;;;19.83;17.83;;;17.60;99.90;;;;;;6132082;23;20032;-81
2023/09/16 08:42:34;;;;;;;18.15;16.08;;;17.80;99.90;;;;;;6131987;23;20450;-81
2023/09/16 08:45:04;;;;;;;18.15;16.42;;;18.20;99.90;;;;;;6135315;23;20340;-83
2023/09/16 08:47:38;;;;;;;16.83;15.23;;;18.60;99.90;;;;;;6132845;23;20013;-81
2023/09/16 08:50:09;;;;;;;16.00;14.45;;;18.90;99.90;;;;;;6104530;23;20397;-81
2023/09/16 08:52:49;;;;;;;15.93;14.38;;;19.20;99.90;;;;;;6153838;23;20018;-81
2023/09/16 08:55:16;;;;;;;14.32;13.00;;;19.50;99.90;;;;;;6129079;23;20020;-82
2023/09/16 08:57:55;;;;;;;14.68;13.18;;;19.70;99.90;;;;;;6154300;23;20064;-82
2023/09/16 09:00:21;;;;;;;12.15;11.02;;;19.90;99.90;;;;;;6152244;23;20091;-81
2023/09/16 09:02:48;;;;;;;11.85;10.68;;;20.10;99.90;;;;;;6129228;23;20013;-82
2023/09/16 09:05:15;;;;;;;12.55;11.25;;;20.40;99.90;;;;;;6104161;23;20013;-81
2023/09/16 09:07:42;;;;;;;11.38;10.38;;;20.80;99.90;;;;;;6129310;23;20017;-81
2023/09/16 09:10:12;;;;;;;10.93;9.90;;;21.10;99.90;;;;;;6130542;23;20366;-81
2023/09/16 09:12:43;;;;;;;11.90;10.80;;;21.50;99.90;;;;;;6129008;23;20085;-81
2023/09/16 09:15:10;;;;;;;11.93;10.82;;;21.80;99.90;;;;;;6129109;23;20083;-80
2023/09/16 09:17:43;;;;;;;12.50;11.27;;;22.00;99.90;;;;;;6154472;23;20020;-81
2023/09/16 09:20:13;;;;;;;10.73;9.63;;;22.10;99.90;;;;;;6153994;23;20476;-81
2023/09/16 09:22:42;;;;;;;12.25;11.05;;;22.40;99.90;;;;;;6105287;23;20013;-82
2023/09/16 09:25:08;;;;;;;12.07;10.98;;;22.60;99.90;;;;;;6104228;23;20032;-80
2023/09/16 09:27:34;;;;;;;11.57;10.48;;;22.50;99.90;;;;;;6128231;23;20049;-81
2023/09/16 09:30:00;;;;;;;11.95;10.85;;;22.40;99.90;;;;;;6130128;23;20351;-80
2023/09/16 09:32:31;;;;;;;13.65;12.35;;;22.40;99.90;;;;;;6153395;23;20021;-79
2023/09/16 09:34:57;;;;;;;17.05;15.25;;;22.40;99.90;;;;;;6129398;23;20045;-79
2023/09/16 09:37:22;;;;;;;21.02;18.77;;;22.40;99.90;;;;;;6154497;23;20010;-79
2023/09/16 09:40:14;;;;;;;21.48;19.23;;;22.20;99.90;;;;;;6128315;23;20506;-79
2023/09/16 09:42:47;;;;;;;26.85;21.20;;;22.10;99.90;;;;;;6153670;23;20014;-79
2023/09/16 09:45:15;;;;;;;30.38;21.95;;;22.20;99.90;;;;;;6128115;23;20009;-80
2023/09/16 09:47:41;;;;;;;44.25;36.97;;;22.50;99.90;;;;;;6128261;23;20045;-79
2023/09/16 09:50:11;;;;;;;43.72;36.45;;;22.90;99.90;;;;;;6153692;23;20040;-82
2023/09/16 09:52:36;;;;;;;49.30;41.65;;;23.20;99.90;;;;;;6129914;23;20041;-82
2023/09/16 09:55:03;;;;;;;27.95;23.52;;;23.30;99.90;;;;;;6130305;23;20025;-81
2023/09/16 09:57:28;;;;;;;24.70;20.30;;;23.40;99.90;;;;;;6105069;23;20010;-79
2023/09/16 09:59:57;;;;;;;17.70;15.88;;;23.40;99.90;;;;;;6130098;23;20350;-80
2023/09/16 10:02:26;;;;;;;26.80;22.85;;;23.30;99.90;;;;;;6129311;23;20015;-78
2023/09/16 10:05:05;;;;;;;25.73;20.90;;;23.30;99.90;;;;;;6131003;23;20021;-81
2023/09/16 10:07:34;;;;;;;30.95;25.25;;;23.30;99.90;;;;;;6109210;23;20025;-79
2023/09/16 10:09:59;;;;;;;24.20;19.88;;;23.30;99.90;;;;;;6108405;23;20013;-78
2023/09/16 10:12:25;;;;;;;16.23;14.50;;;23.40;99.90;;;;;;6130848;23;20037;-78
2023/09/16 10:14:51;;;;;;;15.00;13.45;;;23.20;99.90;;;;;;6155199;23;20024;-79
2023/09/16 10:17:18;;;;;;;12.43;10.93;;;23.00;99.90;;;;;;6132648;23;20005;-80
2023/09/16 10:19:44;;;;;;;13.70;12.40;;;23.00;99.90;;;;;;6158149;23;20465;-80
2023/09/16 10:22:11;;;;;;;21.60;18.42;;;23.30;99.90;;;;;;6132478;23;20005;-79
2023/09/16 10:24:40;;;;;;;18.95;16.88;;;23.40;99.90;;;;;;6155979;23;20458;-79
2023/09/16 10:27:19;;;;;;;16.33;14.73;;;23.40;99.90;;;;;;6133972;23;20013;-80
2023/09/16 10:29:47;;;;;;;13.57;12.20;;;23.30;99.90;;;;;;6134745;23;20014;-78
2023/09/16 10:32:13;;;;;;;11.52;10.45;;;23.30;99.90;;;;;;6130592;23;20036;-78
2023/09/16 10:34:43;;;;;;;10.40;9.23;;;23.30;99.90;;;;;;6130670;23;20023;-76
2023/09/16 10:37:09;;;;;;;10.10;8.75;;;23.40;99.90;;;;;;6130824;23;20033;-78
2023/09/16 10:39:37;;;;;;;10.27;9.38;;;23.50;99.90;;;;;;6131641;23;20350;-79
2023/09/16 10:42:03;;;;;;;9.77;8.90;;;23.70;99.90;;;;;;6132081;23;20037;-79
2023/09/16 10:44:30;;;;;;;9.57;8.68;;;23.80;99.90;;;;;;6133770;23;20086;-79
2023/09/16 10:46:58;;;;;;;8.95;8.15;;;23.90;99.90;;;;;;6132576;23;20101;-79
2023/09/16 10:49:23;;;;;;;9.23;7.70;;;24.10;99.90;;;;;;6133322;23;20025;-79
2023/09/16 10:51:50;;;;;;;7.95;7.15;;;24.00;99.90;;;;;;6132222;23;20009;-79
2023/09/16 10:54:31;;;;;;;8.10;7.10;;;24.00;99.90;;;;;;6130629;23;20044;-79
2023/09/16 10:57:01;;;;;;;7.72;6.95;;;24.20;99.90;;;;;;6130973;23;20010;-79
2023/09/16 10:59:31;;;;;;;8.65;7.70;;;24.40;99.90;;;;;;6131716;23;20041;-79
2023/09/16 11:02:03;;;;;;;8.40;6.97;;;24.50;99.90;;;;;;6130778;23;20019;-79
2023/09/16 11:04:30;;;;;;;7.70;6.90;;;24.70;99.90;;;;;;6130417;23;20017;-79
2023/09/16 11:06:57;;;;;;;6.78;6.07;;;24.90;99.90;;;;;;6130638;23;20298;-79
2023/09/16 11:09:24;;;;;;;6.75;6.03;;;24.90;99.90;;;;;;6130858;23;20024;-77
2023/09/16 11:11:50;;;;;;;6.32;5.72;;;25.00;99.90;;;;;;6130356;23;20089;-78
2023/09/16 11:14:18;;;;;;;6.38;5.78;;;25.00;99.90;;;;;;6130369;23;20020;-80
2023/09/16 11:16:58;;;;;;;7.63;5.43;;;25.10;99.90;;;;;;6128494;23;20009;-79
2023/09/16 11:19:25;;;;;;;8.13;5.68;;;25.30;99.90;;;;;;6129596;23;20017;-79
2023/09/16 11:21:54;;;;;;;6.88;4.85;;;25.50;99.90;;;;;;6129434;23;20076;-78
2023/09/16 11:24:20;;;;;;;4.68;3.42;;;25.80;99.90;;;;;;6129200;23;20347;-80
2023/09/16 11:26:47;;;;;;;4.75;4.22;;;25.80;99.90;;;;;;6128869;23;20014;-79
2023/09/16 11:29:22;;;;;;;4.18;3.78;;;25.80;99.90;;;;;;6129810;23;20136;-79
2023/09/16 11:31:48;;;;;;;4.47;4.07;;;26.00;94.70;;;;;;6128118;23;20040;-79
2023/09/16 11:34:20;;;;;;;4.28;3.20;;;26.10;99.90;;;;;;6128364;23;20013;-78
2023/09/16 11:37:13;;;;;;;4.90;3.70;;;26.50;93.00;;;;;;6128752;23;20346;-78
2023/09/16 11:39:43;;;;;;;4.80;3.50;;;26.70;86.00;;;;;;6125701;23;20024;-79
2023/09/16 11:42:10;;;;;;;4.10;3.55;;;26.60;85.20;;;;;;6129280;23;20009;-79
2023/09/16 11:44:36;;;;;;;4.35;3.50;;;26.80;76.60;;;;;;6129705;23;20013;-80
2023/09/16 11:47:03;;;;;;;4.03;3.40;;;26.90;91.40;;;;;;6128996;23;20013;-79
2023/09/16 11:49:33;;;;;;;4.85;3.60;;;27.10;79.70;;;;;;6129931;23;20010;-80
2023/09/16 11:51:59;;;;;;;3.95;3.17;;;27.20;97.10;;;;;;6129796;23;20009;-80
2023/09/16 11:54:25;;;;;;;3.80;3.30;;;27.20;99.10;;;;;;6127805;23;20262;-77
2023/09/16 11:56:52;;;;;;;5.03;3.50;;;27.20;97.00;;;;;;6127136;23;20029;-78
2023/09/16 11:59:18;;;;;;;3.50;3.20;;;27.20;77.60;;;;;;6128591;23;20021;-78
2023/09/16 12:01:44;;;;;;;4.78;2.83;;;26.80;81.50;;;;;;6127578;23;20010;-78
2023/09/16 12:04:11;;;;;;;2.85;2.47;;;26.50;69.10;;;;;;6128756;23;20370;-78
2023/09/16 12:06:38;;;;;;;5.43;3.30;;;26.30;71.60;;;;;;6127853;23;20084;-78
2023/09/16 12:09:08;;;;;;;4.35;2.55;;;26.10;69.90;;;;;;6127909;23;20025;-77
2023/09/16 12:11:36;;;;;;;3.80;3.15;;;25.60;71.70;;;;;;6127187;23;20021;-77
2023/09/16 12:14:03;;;;;;;4.53;3.40;;;25.50;75.70;;;;;;6127989;23;20019;-78
2023/09/16 12:16:29;;;;;;;10.77;3.10;;;25.70;76.00;;;;;;6127442;23;20093;-77
2023/09/16 12:18:55;;;;;;;4.28;2.75;;;25.90;76.00;;;;;;6128846;23;20454;-77
2023/09/16 12:21:21;;;;;;;5.25;2.90;;;25.80;71.20;;;;;;6128595;23;20016;-77
2023/09/16 12:23:49;;;;;;;3.08;2.47;;;25.80;73.70;;;;;;6127874;23;20083;-78
2023/09/16 12:26:14;;;;;;;3.67;3.03;;;25.90;73.40;;;;;;6126314;23;20017;-77
2023/09/16 12:28:40;;;;;;;4.43;3.22;;;26.10;86.80;;;;;;6127760;23;20020;-77